sensor_id;sensor_type;location;lat;lon;timestamp;P1;durP1;ratioP1;P2;durP2;ratioP2
58966;SDS011;44744;51.894;5.080;2024-03-23T00:56:45;19.50;;;7.20;;
58966;SDS011;44744;51.894;5.080;2024-03-23T01:01:46;20.50;;;7.80;;
58966;SDS011;44744;51.894;5.080;2024-03-23T01:06:46;19.40;;;8.00;;
58966;SDS011;44744;51.894;5.080;2024-03-23T01:11:47;21.10;;;8.10;;
58966;SDS011;44744;51.894;5.080;2024-03-23T01:16:47;17.40;;;7.40;;
58966;SDS011;44744;51.894;5.080;2024-03-23T01:21:47;19.80;;;6.80;;
58966;SDS011;44744;51.894;5.080;2024-03-23T01:26:49;15.20;;;6.50;;
58966;SDS011;44744;51.894;5.080;2024-03-23T01:31:49;12.00;;;5.70;;
58966;SDS011;44744;51.894;5.080;2024-03-23T01:36:50;17.20;;;6.10;;
58966;SDS011;44744;51.894;5.080;2024-03-23T01:41:50;13.40;;;5.30;;
58966;SDS011;44744;51.894;5.080;2024-03-23T01:46:51;16.00;;;5.10;;
58966;SDS011;44744;51.894;5.080;2024-03-23T01:51:51;13.90;;;4.10;;
58966;SDS011;44744;51.894;5.080;2024-03-23T01:56:52;13.50;;;4.30;;
58966;SDS011;44744;51.894;5.080;2024-03-23T02:01:54;12.20;;;3.60;;
58966;SDS011;44744;51.894;5.080;2024-03-23T02:06:54;12.90;;;4.00;;
58966;SDS011;44744;51.894;5.080;2024-03-23T02:11:55;12.40;;;3.90;;
58966;SDS011;44744;51.894;5.080;2024-03-23T02:16:55;14.80;;;3.30;;
58966;SDS011;44744;51.894;5.080;2024-03-23T02:21:56;11.50;;;4.10;;
58966;SDS011;44744;51.894;5.080;2024-03-23T02:26:56;16.70;;;3.90;;
58966;SDS011;44744;51.894;5.080;2024-03-23T02:31:56;15.30;;;4.40;;
58966;SDS011;44744;51.894;5.080;2024-03-23T02:36:59;12.00;;;3.90;;
58966;SDS011;44744;51.894;5.080;2024-03-23T02:41:59;13.10;;;3.70;;
58966;SDS011;44744;51.894;5.080;2024-03-23T02:46:59;13.20;;;4.50;;
58966;SDS011;44744;51.894;5.080;2024-03-23T02:52:00;16.30;;;4.00;;
58966;SDS011;44744;51.894;5.080;2024-03-23T02:57:02;15.60;;;4.20;;
58966;SDS011;44744;51.894;5.080;2024-03-23T03:02:03;11.40;;;3.80;;
58966;SDS011;44744;51.894;5.080;2024-03-23T03:07:05;12.50;;;4.60;;
58966;SDS011;44744;51.894;5.080;2024-03-23T03:12:05;16.30;;;4.90;;
58966;SDS011;44744;51.894;5.080;2024-03-23T03:17:06;15.80;;;4.50;;
58966;SDS011;44744;51.894;5.080;2024-03-23T03:22:07;13.30;;;4.30;;
58966;SDS011;44744;51.894;5.080;2024-03-23T03:27:07;13.30;;;4.80;;
58966;SDS011;44744;51.894;5.080;2024-03-23T03:32:07;15.50;;;4.30;;
58966;SDS011;44744;51.894;5.080;2024-03-23T03:37:08;13.70;;;4.10;;
58966;SDS011;44744;51.894;5.080;2024-03-23T03:42:09;13.40;;;3.80;;
58966;SDS011;44744;51.894;5.080;2024-03-23T03:47:09;19.20;;;4.30;;
58966;SDS011;44744;51.894;5.080;2024-03-23T03:52:09;13.40;;;4.20;;
58966;SDS011;44744;51.894;5.080;2024-03-23T03:57:10;11.60;;;3.60;;
58966;SDS011;44744;51.894;5.080;2024-03-23T04:02:10;14.20;;;3.70;;
58966;SDS011;44744;51.894;5.080;2024-03-23T04:07:10;10.80;;;3.40;;
58966;SDS011;44744;51.894;5.080;2024-03-23T04:12:11;12.90;;;3.30;;
58966;SDS011;44744;51.894;5.080;2024-03-23T04:17:12;13.40;;;4.20;;
58966;SDS011;44744;51.894;5.080;2024-03-23T04:22:12;14.90;;;3.80;;
58966;SDS011;44744;51.894;5.080;2024-03-23T04:27:13;10.00;;;3.70;;
58966;SDS011;44744;51.894;5.080;2024-03-23T04:32:14;12.70;;;3.00;;
58966;SDS011;44744;51.894;5.080;2024-03-23T04:37:16;13.30;;;3.20;;
58966;SDS011;44744;51.894;5.080;2024-03-23T04:42:18;9.00;;;2.70;;
58966;SDS011;44744;51.894;5.080;2024-03-23T04:47:18;13.20;;;4.00;;
58966;SDS011;44744;51.894;5.080;2024-03-23T04:52:19;11.70;;;3.20;;
58966;SDS011;44744;51.894;5.080;2024-03-23T04:57:19;10.90;;;2.60;;
58966;SDS011;44744;51.894;5.080;2024-03-23T05:02:19;10.50;;;2.70;;
58966;SDS011;44744;51.894;5.080;2024-03-23T05:07:20;8.40;;;2.50;;
58966;SDS011;44744;51.894;5.080;2024-03-23T05:12:20;8.40;;;2.70;;
58966;SDS011;44744;51.894;5.080;2024-03-23T05:17:21;7.10;;;2.50;;
58966;SDS011;44744;51.894;5.080;2024-03-23T05:22:21;11.20;;;2.90;;
58966;SDS011;44744;51.894;5.080;2024-03-23T05:27:22;10.20;;;2.80;;
58966;SDS011;44744;51.894;5.080;2024-03-23T05:32:23;9.80;;;2.40;;
58966;SDS011;44744;51.894;5.080;2024-03-23T05:37:24;16.00;;;3.30;;
58966;SDS011;44744;51.894;5.080;2024-03-23T05:42:24;11.50;;;2.80;;
58966;SDS011;44744;51.894;5.080;2024-03-23T05:47:24;13.80;;;3.20;;
58966;SDS011;44744;51.894;5.080;2024-03-23T05:52:25;11.90;;;3.40;;
58966;SDS011;44744;51.894;5.080;2024-03-23T05:57:25;11.30;;;3.00;;
58966;SDS011;44744;51.894;5.080;2024-03-23T06:02:26;11.10;;;3.20;;
58966;SDS011;44744;51.894;5.080;2024-03-23T06:07:26;11.00;;;3.50;;
58966;SDS011;44744;51.894;5.080;2024-03-23T06:12:27;16.80;;;3.40;;
58966;SDS011;44744;51.894;5.080;2024-03-23T06:17:38;9.60;;;2.80;;
58966;SDS011;44744;51.894;5.080;2024-03-23T06:22:39;15.30;;;3.90;;
58966;SDS011;44744;51.894;5.080;2024-03-23T06:27:39;11.90;;;3.20;;
58966;SDS011;44744;51.894;5.080;2024-03-23T06:32:40;12.30;;;3.20;;
58966;SDS011;44744;51.894;5.080;2024-03-23T06:37:40;8.60;;;3.00;;
58966;SDS011;44744;51.894;5.080;2024-03-23T06:42:41;12.40;;;3.30;;
58966;SDS011;44744;51.894;5.080;2024-03-23T06:47:41;9.50;;;3.30;;
58966;SDS011;44744;51.894;5.080;2024-03-23T06:52:42;11.70;;;3.00;;
58966;SDS011;44744;51.894;5.080;2024-03-23T06:57:45;14.10;;;3.60;;
58966;SDS011;44744;51.894;5.080;2024-03-23T07:02:45;10.90;;;3.20;;
58966;SDS011;44744;51.894;5.080;2024-03-23T07:07:46;11.70;;;3.90;;
58966;SDS011;44744;51.894;5.080;2024-03-23T07:12:46;8.60;;;3.30;;
58966;SDS011;44744;51.894;5.080;2024-03-23T07:17:47;14.90;;;3.70;;
58966;SDS011;44744;51.894;5.080;2024-03-23T07:22:47;15.80;;;3.30;;
58966;SDS011;44744;51.894;5.080;2024-03-23T07:27:49;15.20;;;3.70;;
58966;SDS011;44744;51.894;5.080;2024-03-23T07:32:49;10.40;;;3.70;;
58966;SDS011;44744;51.894;5.080;2024-03-23T07:37:50;13.60;;;3.80;;
58966;SDS011;44744;51.894;5.080;2024-03-23T07:42:50;13.80;;;4.50;;
58966;SDS011;44744;51.894;5.080;2024-03-23T07:47:51;13.20;;;3.90;;
58966;SDS011;44744;51.894;5.080;2024-03-23T07:52:51;12.60;;;4.10;;
58966;SDS011;44744;51.894;5.080;2024-03-23T07:57:52;9.70;;;2.80;;
58966;SDS011;44744;51.894;5.080;2024-03-23T08:02:53;10.20;;;2.90;;
58966;SDS011;44744;51.894;5.080;2024-03-23T08:07:54;11.10;;;3.00;;
58966;SDS011;44744;51.894;5.080;2024-03-23T08:12:54;9.70;;;2.60;;
58966;SDS011;44744;51.894;5.080;2024-03-23T08:17:54;12.40;;;3.00;;
58966;SDS011;44744;51.894;5.080;2024-03-23T08:22:55;11.30;;;2.70;;
58966;SDS011;44744;51.894;5.080;2024-03-23T08:27:55;10.00;;;2.90;;
58966;SDS011;44744;51.894;5.080;2024-03-23T08:32:55;11.40;;;2.90;;
58966;SDS011;44744;51.894;5.080;2024-03-23T08:37:59;11.70;;;2.80;;
58966;SDS011;44744;51.894;5.080;2024-03-23T08:43:25;12.00;;;2.50;;
58966;SDS011;44744;51.894;5.080;2024-03-23T08:48:25;11.70;;;2.90;;
58966;SDS011;44744;51.894;5.080;2024-03-23T08:53:27;9.50;;;2.30;;
58966;SDS011;44744;51.894;5.080;2024-03-23T08:58:30;8.10;;;2.80;;
58966;SDS011;44744;51.894;5.080;2024-03-23T09:03:32;9.10;;;2.50;;
58966;SDS011;44744;51.894;5.080;2024-03-23T09:08:33;12.40;;;2.40;;
58966;SDS011;44744;51.894;5.080;2024-03-23T09:13:42;9.00;;;3.10;;
58966;SDS011;44744;51.894;5.080;2024-03-23T09:18:43;9.10;;;2.50;;
58966;SDS011;44744;51.894;5.080;2024-03-23T09:23:45;12.60;;;3.50;;
58966;SDS011;44744;51.894;5.080;2024-03-23T09:28:49;9.30;;;2.80;;
58966;SDS011;44744;51.894;5.080;2024-03-23T09:33:55;12.30;;;3.20;;
58966;SDS011;44744;51.894;5.080;2024-03-23T09:38:55;10.30;;;2.50;;
58966;SDS011;44744;51.894;5.080;2024-03-23T09:43:57;11.30;;;2.80;;
58966;SDS011;44744;51.894;5.080;2024-03-23T09:48:59;15.10;;;2.90;;
58966;SDS011;44744;51.894;5.080;2024-03-23T09:54:05;8.00;;;2.80;;
58966;SDS011;44744;51.894;5.080;2024-03-23T09:59:07;8.20;;;2.50;;
58966;SDS011;44744;51.894;5.080;2024-03-23T10:04:07;14.60;;;2.50;;
58966;SDS011;44744;51.894;5.080;2024-03-23T10:09:16;9.40;;;2.00;;
58966;SDS011;44744;51.894;5.080;2024-03-23T10:14:28;10.30;;;2.70;;
58966;SDS011;44744;51.894;5.080;2024-03-23T10:19:31;7.40;;;2.70;;
58966;SDS011;44744;51.894;5.080;2024-03-23T10:24:31;10.30;;;2.50;;
58966;SDS011;44744;51.894;5.080;2024-03-23T10:29:34;11.80;;;2.50;;
58966;SDS011;44744;51.894;5.080;2024-03-23T10:34:41;8.90;;;2.70;;
58966;SDS011;44744;51.894;5.080;2024-03-23T10:39:42;9.80;;;2.60;;
58966;SDS011;44744;51.894;5.080;2024-03-23T10:44:43;7.50;;;2.10;;
58966;SDS011;44744;51.894;5.080;2024-03-23T10:49:43;6.50;;;2.00;;
58966;SDS011;44744;51.894;5.080;2024-03-23T10:54:46;7.20;;;2.30;;
58966;SDS011;44744;51.894;5.080;2024-03-23T10:59:50;10.50;;;2.90;;
58966;SDS011;44744;51.894;5.080;2024-03-23T11:04:52;8.70;;;2.50;;
58966;SDS011;44744;51.894;5.080;2024-03-23T11:09:55;6.40;;;2.00;;
58966;SDS011;44744;51.894;5.080;2024-03-23T11:14:58;9.60;;;2.60;;
58966;SDS011;44744;51.894;5.080;2024-03-23T11:20:03;10.30;;;2.20;;
58966;SDS011;44744;51.894;5.080;2024-03-23T11:30:19;9.80;;;2.20;;
58966;SDS011;44744;51.894;5.080;2024-03-23T11:35:26;10.60;;;2.70;;
58966;SDS011;44744;51.894;5.080;2024-03-23T11:40:34;6.70;;;2.20;;
58966;SDS011;44744;51.894;5.080;2024-03-23T11:45:43;9.70;;;2.30;;
58966;SDS011;44744;51.894;5.080;2024-03-23T11:50:47;8.20;;;2.10;;
58966;SDS011;44744;51.894;5.080;2024-03-23T11:55:52;7.10;;;2.60;;
58966;SDS011;44744;51.894;5.080;2024-03-23T12:00:57;6.00;;;1.90;;
58966;SDS011;44744;51.894;5.080;2024-03-23T12:06:04;10.00;;;2.30;;
58966;SDS011;44744;51.894;5.080;2024-03-23T12:59:11;11.40;;;2.50;;
